sensor_id;sensor_type;location;lat;lon;timestamp;P1;durP1;ratioP1;P2;durP2;ratioP2
6023;SDS011;3040;42.654;23.296;2023-04-21T00:00:49;6.33;;;6.03;;
6023;SDS011;3040;42.654;23.296;2023-04-21T00:03:16;5.93;;;5.63;;
6023;SDS011;3040;42.654;23.296;2023-04-21T00:05:46;6.23;;;5.70;;
6023;SDS011;3040;42.654;23.296;2023-04-21T00:08:13;6.47;;;5.90;;
6023;SDS011;3040;42.654;23.296;2023-04-21T00:10:40;6.87;;;5.93;;
6023;SDS011;3040;42.654;23.296;2023-04-21T00:13:07;7.03;;;6.43;;
6023;SDS011;3040;42.654;23.296;2023-04-21T00:15:37;5.90;;;5.60;;
6023;SDS011;3040;42.654;23.296;2023-04-21T00:18:04;6.00;;;5.70;;
6023;SDS011;3040;42.654;23.296;2023-04-21T00:20:31;5.97;;;5.57;;
6023;SDS011;3040;42.654;23.296;2023-04-21T00:22:58;5.93;;;5.53;;
6023;SDS011;3040;42.654;23.296;2023-04-21T00:25:25;6.37;;;6.07;;
6023;SDS011;3040;42.654;23.296;2023-04-21T00:27:52;5.83;;;5.53;;
6023;SDS011;3040;42.654;23.296;2023-04-21T00:30:19;5.97;;;5.67;;
6023;SDS011;3040;42.654;23.296;2023-04-21T00:32:47;5.97;;;5.43;;
6023;SDS011;3040;42.654;23.296;2023-04-21T00:35:14;5.00;;;4.60;;
6023;SDS011;3040;42.654;23.296;2023-04-21T00:37:41;4.40;;;4.20;;
6023;SDS011;3040;42.654;23.296;2023-04-21T00:40:08;6.27;;;5.67;;
6023;SDS011;3040;42.654;23.296;2023-04-21T00:42:35;5.30;;;5.00;;
6023;SDS011;3040;42.654;23.296;2023-04-21T00:45:02;6.07;;;5.57;;
6023;SDS011;3040;42.654;23.296;2023-04-21T00:47:30;5.23;;;5.00;;
6023;SDS011;3040;42.654;23.296;2023-04-21T00:49:58;5.47;;;4.97;;
6023;SDS011;3040;42.654;23.296;2023-04-21T00:52:25;6.80;;;5.30;;
6023;SDS011;3040;42.654;23.296;2023-04-21T00:54:53;5.40;;;4.93;;
6023;SDS011;3040;42.654;23.296;2023-04-21T00:57:21;5.93;;;5.60;;
6023;SDS011;3040;42.654;23.296;2023-04-21T00:59:49;6.00;;;5.60;;
6023;SDS011;3040;42.654;23.296;2023-04-21T01:02:16;7.97;;;5.00;;
6023;SDS011;3040;42.654;23.296;2023-04-21T01:04:43;4.93;;;4.63;;
6023;SDS011;3040;42.654;23.296;2023-04-21T01:07:11;5.13;;;4.77;;
6023;SDS011;3040;42.654;23.296;2023-04-21T01:09:38;4.93;;;4.67;;
6023;SDS011;3040;42.654;23.296;2023-04-21T01:12:06;5.13;;;4.80;;
6023;SDS011;3040;42.654;23.296;2023-04-21T01:14:33;5.00;;;4.77;;
6023;SDS011;3040;42.654;23.296;2023-04-21T01:17:01;5.03;;;4.70;;
6023;SDS011;3040;42.654;23.296;2023-04-21T01:19:30;5.80;;;5.27;;
6023;SDS011;3040;42.654;23.296;2023-04-21T01:22:01;5.60;;;5.10;;
6023;SDS011;3040;42.654;23.296;2023-04-21T01:24:37;8.83;;;5.13;;
6023;SDS011;3040;42.654;23.296;2023-04-21T01:27:08;5.80;;;5.40;;
6023;SDS011;3040;42.654;23.296;2023-04-21T01:29:36;6.73;;;6.33;;
6023;SDS011;3040;42.654;23.296;2023-04-21T01:32:05;4.87;;;4.60;;
6023;SDS011;3040;42.654;23.296;2023-04-21T01:34:33;5.57;;;5.17;;
6023;SDS011;3040;42.654;23.296;2023-04-21T01:37:01;5.57;;;5.37;;
6023;SDS011;3040;42.654;23.296;2023-04-21T01:39:28;5.97;;;5.37;;
6023;SDS011;3040;42.654;23.296;2023-04-21T01:41:55;6.23;;;5.40;;
6023;SDS011;3040;42.654;23.296;2023-04-21T01:44:23;5.20;;;5.00;;
6023;SDS011;3040;42.654;23.296;2023-04-21T01:46:51;7.97;;;5.33;;
6023;SDS011;3040;42.654;23.296;2023-04-21T01:49:18;5.33;;;5.13;;
6023;SDS011;3040;42.654;23.296;2023-04-21T01:51:45;5.73;;;5.43;;
6023;SDS011;3040;42.654;23.296;2023-04-21T01:54:13;5.77;;;5.47;;
6023;SDS011;3040;42.654;23.296;2023-04-21T01:56:40;5.00;;;4.80;;
6023;SDS011;3040;42.654;23.296;2023-04-21T01:59:07;6.57;;;6.07;;
6023;SDS011;3040;42.654;23.296;2023-04-21T02:01:34;6.20;;;5.80;;
6023;SDS011;3040;42.654;23.296;2023-04-21T02:04:01;5.90;;;5.47;;
6023;SDS011;3040;42.654;23.296;2023-04-21T02:06:28;5.80;;;5.20;;
6023;SDS011;3040;42.654;23.296;2023-04-21T02:08:56;6.07;;;5.57;;
6023;SDS011;3040;42.654;23.296;2023-04-21T02:11:25;6.73;;;6.13;;
6023;SDS011;3040;42.654;23.296;2023-04-21T02:13:51;6.37;;;6.03;;
6023;SDS011;3040;42.654;23.296;2023-04-21T02:16:18;8.40;;;5.83;;
6023;SDS011;3040;42.654;23.296;2023-04-21T02:18:45;6.27;;;5.63;;
6023;SDS011;3040;42.654;23.296;2023-04-21T02:21:12;6.63;;;6.03;;
6023;SDS011;3040;42.654;23.296;2023-04-21T02:23:40;7.20;;;5.73;;
6023;SDS011;3040;42.654;23.296;2023-04-21T02:26:07;6.70;;;6.30;;
6023;SDS011;3040;42.654;23.296;2023-04-21T02:28:35;6.47;;;6.17;;
6023;SDS011;3040;42.654;23.296;2023-04-21T02:31:02;7.43;;;6.93;;
6023;SDS011;3040;42.654;23.296;2023-04-21T02:33:29;6.63;;;6.13;;
6023;SDS011;3040;42.654;23.296;2023-04-21T02:35:56;7.37;;;6.77;;
6023;SDS011;3040;42.654;23.296;2023-04-21T02:38:23;6.33;;;6.03;;
6023;SDS011;3040;42.654;23.296;2023-04-21T02:40:50;6.97;;;6.57;;
6023;SDS011;3040;42.654;23.296;2023-04-21T02:43:17;7.47;;;6.57;;
6023;SDS011;3040;42.654;23.296;2023-04-21T02:45:45;7.37;;;6.87;;
6023;SDS011;3040;42.654;23.296;2023-04-21T02:48:12;6.33;;;5.93;;
6023;SDS011;3040;42.654;23.296;2023-04-21T02:50:38;6.60;;;6.20;;
6023;SDS011;3040;42.654;23.296;2023-04-21T02:53:06;7.33;;;6.83;;
6023;SDS011;3040;42.654;23.296;2023-04-21T02:55:34;7.17;;;6.50;;
6023;SDS011;3040;42.654;23.296;2023-04-21T02:58:01;6.30;;;5.97;;
6023;SDS011;3040;42.654;23.296;2023-04-21T03:00:27;7.03;;;6.63;;
6023;SDS011;3040;42.654;23.296;2023-04-21T03:02:56;7.27;;;6.87;;
6023;SDS011;3040;42.654;23.296;2023-04-21T03:05:23;7.70;;;7.20;;
6023;SDS011;3040;42.654;23.296;2023-04-21T03:07:50;7.40;;;6.80;;
6023;SDS011;3040;42.654;23.296;2023-04-21T03:10:17;6.80;;;6.40;;
6023;SDS011;3040;42.654;23.296;2023-04-21T03:12:43;7.90;;;6.17;;
6023;SDS011;3040;42.654;23.296;2023-04-21T03:15:10;7.40;;;6.90;;
6023;SDS011;3040;42.654;23.296;2023-04-21T03:17:41;6.27;;;5.93;;
6023;SDS011;3040;42.654;23.296;2023-04-21T03:20:10;6.43;;;5.90;;
6023;SDS011;3040;42.654;23.296;2023-04-21T03:22:37;6.43;;;5.97;;
6023;SDS011;3040;42.654;23.296;2023-04-21T03:25:04;7.03;;;5.50;;
6023;SDS011;3040;42.654;23.296;2023-04-21T03:27:32;7.17;;;6.57;;
6023;SDS011;3040;42.654;23.296;2023-04-21T03:29:59;7.03;;;6.07;;
6023;SDS011;3040;42.654;23.296;2023-04-21T03:32:26;7.67;;;7.07;;
6023;SDS011;3040;42.654;23.296;2023-04-21T03:34:52;6.30;;;5.80;;
6023;SDS011;3040;42.654;23.296;2023-04-21T03:37:21;7.27;;;6.57;;
6023;SDS011;3040;42.654;23.296;2023-04-21T03:39:48;7.03;;;6.63;;
6023;SDS011;3040;42.654;23.296;2023-04-21T03:42:14;7.30;;;6.80;;
6023;SDS011;3040;42.654;23.296;2023-04-21T03:44:41;7.00;;;6.50;;
6023;SDS011;3040;42.654;23.296;2023-04-21T03:47:08;6.93;;;6.60;;
6023;SDS011;3040;42.654;23.296;2023-04-21T03:49:35;7.77;;;7.13;;
6023;SDS011;3040;42.654;23.296;2023-04-21T03:52:02;7.20;;;6.80;;
6023;SDS011;3040;42.654;23.296;2023-04-21T03:54:30;7.00;;;6.50;;
6023;SDS011;3040;42.654;23.296;2023-04-21T03:56:57;7.20;;;6.80;;
6023;SDS011;3040;42.654;23.296;2023-04-21T03:59:24;7.93;;;6.83;;
6023;SDS011;3040;42.654;23.296;2023-04-21T04:01:51;7.40;;;6.83;;
6023;SDS011;3040;42.654;23.296;2023-04-21T04:04:18;8.60;;;7.90;;
6023;SDS011;3040;42.654;23.296;2023-04-21T04:06:45;8.70;;;7.83;;
6023;SDS011;3040;42.654;23.296;2023-04-21T04:09:12;7.70;;;7.20;;
6023;SDS011;3040;42.654;23.296;2023-04-21T04:11:40;7.40;;;7.10;;
6023;SDS011;3040;42.654;23.296;2023-04-21T04:14:07;7.93;;;7.33;;
6023;SDS011;3040;42.654;23.296;2023-04-21T04:16:33;7.60;;;7.13;;
6023;SDS011;3040;42.654;23.296;2023-04-21T04:19:00;11.63;;;7.37;;
6023;SDS011;3040;42.654;23.296;2023-04-21T04:21:27;9.17;;;8.40;;
6023;SDS011;3040;42.654;23.296;2023-04-21T04:23:56;7.90;;;7.40;;
6023;SDS011;3040;42.654;23.296;2023-04-21T04:26:23;7.53;;;7.03;;
6023;SDS011;3040;42.654;23.296;2023-04-21T04:28:53;8.07;;;7.67;;
6023;SDS011;3040;42.654;23.296;2023-04-21T04:31:20;8.03;;;7.53;;
6023;SDS011;3040;42.654;23.296;2023-04-21T04:33:49;8.10;;;7.47;;
6023;SDS011;3040;42.654;23.296;2023-04-21T04:36:16;8.03;;;7.53;;
6023;SDS011;3040;42.654;23.296;2023-04-21T04:38:44;7.63;;;7.23;;
6023;SDS011;3040;42.654;23.296;2023-04-21T04:41:11;7.30;;;7.00;;
6023;SDS011;3040;42.654;23.296;2023-04-21T04:43:38;8.83;;;8.17;;
6023;SDS011;3040;42.654;23.296;2023-04-21T04:46:07;8.10;;;7.63;;
6023;SDS011;3040;42.654;23.296;2023-04-21T04:48:36;7.80;;;7.37;;
6023;SDS011;3040;42.654;23.296;2023-04-21T04:51:03;8.10;;;7.60;;
6023;SDS011;3040;42.654;23.296;2023-04-21T04:53:31;7.80;;;7.30;;
6023;SDS011;3040;42.654;23.296;2023-04-21T04:55:58;8.10;;;7.60;;
6023;SDS011;3040;42.654;23.296;2023-04-21T04:58:25;9.33;;;8.83;;
6023;SDS011;3040;42.654;23.296;2023-04-21T05:00:52;7.77;;;7.20;;
6023;SDS011;3040;42.654;23.296;2023-04-21T05:03:20;8.70;;;8.00;;
6023;SDS011;3040;42.654;23.296;2023-04-21T05:05:46;12.47;;;7.40;;
6023;SDS011;3040;42.654;23.296;2023-04-21T05:08:13;8.40;;;7.80;;
6023;SDS011;3040;42.654;23.296;2023-04-21T05:10:40;8.27;;;7.47;;
6023;SDS011;3040;42.654;23.296;2023-04-21T05:13:07;8.40;;;7.83;;
6023;SDS011;3040;42.654;23.296;2023-04-21T05:15:34;8.57;;;8.00;;
6023;SDS011;3040;42.654;23.296;2023-04-21T05:18:01;9.10;;;8.47;;
6023;SDS011;3040;42.654;23.296;2023-04-21T05:20:29;8.53;;;8.03;;
6023;SDS011;3040;42.654;23.296;2023-04-21T05:22:56;8.77;;;8.17;;
6023;SDS011;3040;42.654;23.296;2023-04-21T05:25:23;8.37;;;7.57;;
6023;SDS011;3040;42.654;23.296;2023-04-21T05:27:50;7.77;;;7.07;;
6023;SDS011;3040;42.654;23.296;2023-04-21T05:30:17;8.63;;;7.83;;
6023;SDS011;3040;42.654;23.296;2023-04-21T05:32:44;6.97;;;6.67;;
6023;SDS011;3040;42.654;23.296;2023-04-21T05:35:11;9.10;;;7.97;;
6023;SDS011;3040;42.654;23.296;2023-04-21T05:37:39;8.43;;;7.80;;
6023;SDS011;3040;42.654;23.296;2023-04-21T05:40:06;7.70;;;7.20;;
6023;SDS011;3040;42.654;23.296;2023-04-21T05:42:33;8.10;;;7.10;;
6023;SDS011;3040;42.654;23.296;2023-04-21T05:45:00;12.83;;;7.97;;
6023;SDS011;3040;42.654;23.296;2023-04-21T05:47:28;8.17;;;7.43;;
6023;SDS011;3040;42.654;23.296;2023-04-21T05:49:55;8.23;;;7.67;;
6023;SDS011;3040;42.654;23.296;2023-04-21T05:52:22;8.83;;;7.60;;
6023;SDS011;3040;42.654;23.296;2023-04-21T05:54:50;9.07;;;8.23;;
6023;SDS011;3040;42.654;23.296;2023-04-21T05:57:17;9.50;;;8.80;;
6023;SDS011;3040;42.654;23.296;2023-04-21T05:59:43;8.87;;;7.93;;
6023;SDS011;3040;42.654;23.296;2023-04-21T06:02:10;8.83;;;8.07;;
6023;SDS011;3040;42.654;23.296;2023-04-21T06:04:37;9.40;;;8.60;;
6023;SDS011;3040;42.654;23.296;2023-04-21T06:07:04;8.90;;;7.97;;
6023;SDS011;3040;42.654;23.296;2023-04-21T06:09:32;10.63;;;8.43;;
6023;SDS011;3040;42.654;23.296;2023-04-21T06:12:00;10.57;;;8.53;;
6023;SDS011;3040;42.654;23.296;2023-04-21T06:14:28;9.13;;;8.30;;
6023;SDS011;3040;42.654;23.296;2023-04-21T06:16:54;9.23;;;8.53;;
6023;SDS011;3040;42.654;23.296;2023-04-21T06:19:21;8.90;;;8.20;;
6023;SDS011;3040;42.654;23.296;2023-04-21T06:21:48;8.50;;;7.80;;
6023;SDS011;3040;42.654;23.296;2023-04-21T06:24:15;9.20;;;8.43;;
6023;SDS011;3040;42.654;23.296;2023-04-21T06:26:49;8.73;;;7.97;;
6023;SDS011;3040;42.654;23.296;2023-04-21T06:29:17;8.20;;;7.50;;
6023;SDS011;3040;42.654;23.296;2023-04-21T06:31:44;9.27;;;8.07;;
6023;SDS011;3040;42.654;23.296;2023-04-21T06:34:11;9.07;;;8.53;;
6023;SDS011;3040;42.654;23.296;2023-04-21T06:36:37;10.87;;;8.53;;
6023;SDS011;3040;42.654;23.296;2023-04-21T06:39:04;12.30;;;8.33;;
6023;SDS011;3040;42.654;23.296;2023-04-21T06:41:31;8.67;;;7.80;;
6023;SDS011;3040;42.654;23.296;2023-04-21T06:43:58;8.13;;;7.40;;
6023;SDS011;3040;42.654;23.296;2023-04-21T06:46:26;8.03;;;7.40;;
6023;SDS011;3040;42.654;23.296;2023-04-21T06:48:53;8.30;;;7.90;;
6023;SDS011;3040;42.654;23.296;2023-04-21T06:51:20;8.90;;;8.10;;
6023;SDS011;3040;42.654;23.296;2023-04-21T06:53:47;8.17;;;7.57;;
6023;SDS011;3040;42.654;23.296;2023-04-21T06:56:14;7.07;;;6.63;;
6023;SDS011;3040;42.654;23.296;2023-04-21T06:58:41;7.17;;;6.67;;
6023;SDS011;3040;42.654;23.296;2023-04-21T07:01:07;8.93;;;8.07;;
6023;SDS011;3040;42.654;23.296;2023-04-21T07:03:36;8.17;;;7.40;;
6023;SDS011;3040;42.654;23.296;2023-04-21T07:06:03;7.90;;;7.20;;
6023;SDS011;3040;42.654;23.296;2023-04-21T07:08:30;7.67;;;7.10;;
6023;SDS011;3040;42.654;23.296;2023-04-21T07:10:57;7.97;;;7.33;;
6023;SDS011;3040;42.654;23.296;2023-04-21T07:13:23;7.33;;;6.93;;
6023;SDS011;3040;42.654;23.296;2023-04-21T07:15:50;7.27;;;6.67;;
6023;SDS011;3040;42.654;23.296;2023-04-21T07:18:17;7.97;;;7.47;;
6023;SDS011;3040;42.654;23.296;2023-04-21T07:20:46;6.87;;;6.27;;
6023;SDS011;3040;42.654;23.296;2023-04-21T07:23:13;6.63;;;6.17;;
6023;SDS011;3040;42.654;23.296;2023-04-21T07:25:39;7.93;;;6.90;;
6023;SDS011;3040;42.654;23.296;2023-04-21T07:28:06;7.00;;;6.33;;
6023;SDS011;3040;42.654;23.296;2023-04-21T07:30:33;6.13;;;5.70;;
6023;SDS011;3040;42.654;23.296;2023-04-21T07:33:00;6.77;;;6.27;;
6023;SDS011;3040;42.654;23.296;2023-04-21T07:35:27;7.57;;;6.93;;
6023;SDS011;3040;42.654;23.296;2023-04-21T07:37:55;7.00;;;6.53;;
6023;SDS011;3040;42.654;23.296;2023-04-21T07:40:22;7.47;;;6.87;;
6023;SDS011;3040;42.654;23.296;2023-04-21T07:42:49;6.27;;;5.77;;
6023;SDS011;3040;42.654;23.296;2023-04-21T07:45:16;9.13;;;6.10;;
6023;SDS011;3040;42.654;23.296;2023-04-21T07:47:43;7.07;;;6.47;;
6023;SDS011;3040;42.654;23.296;2023-04-21T07:50:10;7.63;;;6.53;;
6023;SDS011;3040;42.654;23.296;2023-04-21T07:52:37;6.80;;;6.40;;
6023;SDS011;3040;42.654;23.296;2023-04-21T07:55:05;6.27;;;5.97;;
6023;SDS011;3040;42.654;23.296;2023-04-21T07:57:32;6.57;;;6.20;;
6023;SDS011;3040;42.654;23.296;2023-04-21T08:00:02;7.43;;;6.43;;
6023;SDS011;3040;42.654;23.296;2023-04-21T08:02:30;7.33;;;6.37;;
6023;SDS011;3040;42.654;23.296;2023-04-21T08:04:57;6.70;;;5.93;;
6023;SDS011;3040;42.654;23.296;2023-04-21T08:07:24;7.20;;;6.50;;
6023;SDS011;3040;42.654;23.296;2023-04-21T08:09:51;6.83;;;6.23;;
6023;SDS011;3040;42.654;23.296;2023-04-21T08:12:19;6.27;;;5.90;;
6023;SDS011;3040;42.654;23.296;2023-04-21T08:14:46;8.27;;;7.27;;
6023;SDS011;3040;42.654;23.296;2023-04-21T08:17:12;7.57;;;6.53;;
6023;SDS011;3040;42.654;23.296;2023-04-21T08:19:39;6.67;;;5.93;;
6023;SDS011;3040;42.654;23.296;2023-04-21T08:22:06;11.80;;;7.27;;
6023;SDS011;3040;42.654;23.296;2023-04-21T08:24:33;6.40;;;5.80;;
6023;SDS011;3040;42.654;23.296;2023-04-21T08:27:00;6.20;;;5.90;;
6023;SDS011;3040;42.654;23.296;2023-04-21T08:29:28;6.77;;;6.00;;
6023;SDS011;3040;42.654;23.296;2023-04-21T08:31:55;7.53;;;6.83;;
6023;SDS011;3040;42.654;23.296;2023-04-21T08:34:22;7.07;;;6.57;;
6023;SDS011;3040;42.654;23.296;2023-04-21T08:36:49;6.60;;;6.30;;
6023;SDS011;3040;42.654;23.296;2023-04-21T08:39:16;6.53;;;5.97;;
6023;SDS011;3040;42.654;23.296;2023-04-21T08:41:43;6.10;;;5.70;;
6023;SDS011;3040;42.654;23.296;2023-04-21T08:44:10;6.07;;;5.77;;
6023;SDS011;3040;42.654;23.296;2023-04-21T08:46:38;6.17;;;5.83;;
6023;SDS011;3040;42.654;23.296;2023-04-21T08:49:05;6.40;;;5.90;;
6023;SDS011;3040;42.654;23.296;2023-04-21T08:51:34;6.67;;;5.90;;
6023;SDS011;3040;42.654;23.296;2023-04-21T08:54:01;6.13;;;5.67;;
6023;SDS011;3040;42.654;23.296;2023-04-21T08:56:28;6.30;;;5.90;;
6023;SDS011;3040;42.654;23.296;2023-04-21T08:58:55;5.77;;;5.47;;
6023;SDS011;3040;42.654;23.296;2023-04-21T09:01:22;5.30;;;4.90;;
6023;SDS011;3040;42.654;23.296;2023-04-21T09:03:50;5.93;;;5.67;;
6023;SDS011;3040;42.654;23.296;2023-04-21T09:06:17;6.50;;;5.50;;
6023;SDS011;3040;42.654;23.296;2023-04-21T09:08:51;5.33;;;5.03;;
6023;SDS011;3040;42.654;23.296;2023-04-21T09:11:20;5.23;;;4.93;;
6023;SDS011;3040;42.654;23.296;2023-04-21T09:13:47;5.27;;;4.93;;
6023;SDS011;3040;42.654;23.296;2023-04-21T09:16:14;5.40;;;5.00;;
6023;SDS011;3040;42.654;23.296;2023-04-21T09:18:44;5.53;;;5.07;;
6023;SDS011;3040;42.654;23.296;2023-04-21T09:21:13;5.57;;;5.17;;
6023;SDS011;3040;42.654;23.296;2023-04-21T09:23:41;4.70;;;4.50;;
6023;SDS011;3040;42.654;23.296;2023-04-21T09:26:09;7.77;;;4.60;;
6023;SDS011;3040;42.654;23.296;2023-04-21T09:28:39;8.20;;;4.63;;
6023;SDS011;3040;42.654;23.296;2023-04-21T09:31:11;5.33;;;4.93;;
6023;SDS011;3040;42.654;23.296;2023-04-21T09:33:43;5.30;;;4.90;;
6023;SDS011;3040;42.654;23.296;2023-04-21T09:36:18;4.53;;;4.33;;
6023;SDS011;3040;42.654;23.296;2023-04-21T09:38:55;4.73;;;4.40;;
6023;SDS011;3040;42.654;23.296;2023-04-21T09:41:22;4.87;;;4.47;;
6023;SDS011;3040;42.654;23.296;2023-04-21T09:43:50;9.17;;;5.33;;
6023;SDS011;3040;42.654;23.296;2023-04-21T09:46:17;4.60;;;4.40;;
6023;SDS011;3040;42.654;23.296;2023-04-21T09:48:45;14.53;;;6.20;;
6023;SDS011;3040;42.654;23.296;2023-04-21T09:51:13;5.17;;;4.97;;
6023;SDS011;3040;42.654;23.296;2023-04-21T09:53:43;5.80;;;4.53;;
6023;SDS011;3040;42.654;23.296;2023-04-21T09:56:11;5.00;;;4.70;;
6023;SDS011;3040;42.654;23.296;2023-04-21T09:58:39;4.43;;;4.03;;
6023;SDS011;3040;42.654;23.296;2023-04-21T10:01:09;4.70;;;4.27;;
6023;SDS011;3040;42.654;23.296;2023-04-21T10:03:37;5.00;;;4.60;;
6023;SDS011;3040;42.654;23.296;2023-04-21T10:06:05;4.53;;;4.27;;
6023;SDS011;3040;42.654;23.296;2023-04-21T10:08:32;4.60;;;4.30;;
6023;SDS011;3040;42.654;23.296;2023-04-21T10:11:01;4.30;;;3.90;;
6023;SDS011;3040;42.654;23.296;2023-04-21T10:13:29;4.47;;;4.10;;
6023;SDS011;3040;42.654;23.296;2023-04-21T10:16:03;3.93;;;3.63;;
6023;SDS011;3040;42.654;23.296;2023-04-21T10:18:34;3.57;;;3.37;;
6023;SDS011;3040;42.654;23.296;2023-04-21T10:21:04;8.97;;;3.77;;
6023;SDS011;3040;42.654;23.296;2023-04-21T10:23:36;8.10;;;4.00;;
6023;SDS011;3040;42.654;23.296;2023-04-21T10:26:06;4.90;;;4.20;;
6023;SDS011;3040;42.654;23.296;2023-04-21T10:28:46;4.13;;;3.93;;
6023;SDS011;3040;42.654;23.296;2023-04-21T10:31:22;4.20;;;4.00;;
6023;SDS011;3040;42.654;23.296;2023-04-21T10:34:17;8.40;;;3.73;;
6023;SDS011;3040;42.654;23.296;2023-04-21T10:39:50;6.20;;;4.47;;
6023;SDS011;3040;42.654;23.296;2023-04-21T10:42:27;6.70;;;5.00;;
6023;SDS011;3040;42.654;23.296;2023-04-21T10:47:46;8.07;;;5.40;;
6023;SDS011;3040;42.654;23.296;2023-04-21T10:50:19;4.40;;;4.07;;
6023;SDS011;3040;42.654;23.296;2023-04-21T10:52:51;4.70;;;4.40;;
6023;SDS011;3040;42.654;23.296;2023-04-21T10:55:20;4.90;;;4.37;;
6023;SDS011;3040;42.654;23.296;2023-04-21T10:57:49;4.50;;;4.10;;
6023;SDS011;3040;42.654;23.296;2023-04-21T11:00:17;4.00;;;3.80;;
6023;SDS011;3040;42.654;23.296;2023-04-21T11:02:51;4.67;;;4.37;;
6023;SDS011;3040;42.654;23.296;2023-04-21T11:05:25;4.57;;;4.17;;
6023;SDS011;3040;42.654;23.296;2023-04-21T11:08:02;4.43;;;4.23;;
6023;SDS011;3040;42.654;23.296;2023-04-21T11:10:40;5.07;;;4.13;;
6023;SDS011;3040;42.654;23.296;2023-04-21T11:13:16;5.20;;;4.00;;
6023;SDS011;3040;42.654;23.296;2023-04-21T11:15:54;5.60;;;4.10;;
6023;SDS011;3040;42.654;23.296;2023-04-21T11:18:32;4.50;;;4.10;;
6023;SDS011;3040;42.654;23.296;2023-04-21T11:21:07;4.10;;;3.90;;
6023;SDS011;3040;42.654;23.296;2023-04-21T11:23:34;5.73;;;3.73;;
6023;SDS011;3040;42.654;23.296;2023-04-21T11:26:05;6.80;;;3.70;;
6023;SDS011;3040;42.654;23.296;2023-04-21T11:28:33;4.60;;;4.17;;
6023;SDS011;3040;42.654;23.296;2023-04-21T11:31:00;5.17;;;4.00;;
6023;SDS011;3040;42.654;23.296;2023-04-21T11:33:29;4.57;;;4.03;;
6023;SDS011;3040;42.654;23.296;2023-04-21T11:35:55;6.07;;;3.67;;
6023;SDS011;3040;42.654;23.296;2023-04-21T11:38:24;3.90;;;3.60;;
6023;SDS011;3040;42.654;23.296;2023-04-21T11:40:51;5.07;;;3.13;;
6023;SDS011;3040;42.654;23.296;2023-04-21T11:43:19;6.57;;;3.70;;
6023;SDS011;3040;42.654;23.296;2023-04-21T11:45:49;3.90;;;3.70;;
6023;SDS011;3040;42.654;23.296;2023-04-21T11:48:16;5.07;;;4.23;;
6023;SDS011;3040;42.654;23.296;2023-04-21T11:50:45;3.80;;;3.60;;
6023;SDS011;3040;42.654;23.296;2023-04-21T11:53:13;4.00;;;3.77;;
6023;SDS011;3040;42.654;23.296;2023-04-21T11:55:41;4.40;;;4.00;;
6023;SDS011;3040;42.654;23.296;2023-04-21T11:58:09;4.20;;;3.17;;
6023;SDS011;3040;42.654;23.296;2023-04-21T12:00:39;3.40;;;3.17;;
6023;SDS011;3040;42.654;23.296;2023-04-21T12:03:08;6.27;;;3.60;;
6023;SDS011;3040;42.654;23.296;2023-04-21T12:05:35;3.93;;;3.73;;
6023;SDS011;3040;42.654;23.296;2023-04-21T12:08:03;4.03;;;3.73;;
6023;SDS011;3040;42.654;23.296;2023-04-21T12:10:30;3.67;;;3.03;;
6023;SDS011;3040;42.654;23.296;2023-04-21T12:12:57;3.77;;;3.47;;
6023;SDS011;3040;42.654;23.296;2023-04-21T12:15:25;6.37;;;3.00;;
6023;SDS011;3040;42.654;23.296;2023-04-21T12:17:55;4.13;;;3.73;;
6023;SDS011;3040;42.654;23.296;2023-04-21T12:20:23;4.57;;;3.77;;
6023;SDS011;3040;42.654;23.296;2023-04-21T12:22:53;3.73;;;3.53;;
6023;SDS011;3040;42.654;23.296;2023-04-21T12:25:20;4.17;;;3.30;;
6023;SDS011;3040;42.654;23.296;2023-04-21T12:27:48;3.83;;;3.57;;
6023;SDS011;3040;42.654;23.296;2023-04-21T12:30:16;5.33;;;4.00;;
6023;SDS011;3040;42.654;23.296;2023-04-21T12:32:43;9.80;;;4.30;;
6023;SDS011;3040;42.654;23.296;2023-04-21T12:35:11;4.20;;;3.70;;
6023;SDS011;3040;42.654;23.296;2023-04-21T12:37:40;7.20;;;4.17;;
6023;SDS011;3040;42.654;23.296;2023-04-21T12:40:07;4.60;;;4.20;;
6023;SDS011;3040;42.654;23.296;2023-04-21T12:42:34;5.43;;;3.60;;
6023;SDS011;3040;42.654;23.296;2023-04-21T12:45:01;4.60;;;4.20;;
6023;SDS011;3040;42.654;23.296;2023-04-21T12:47:29;4.23;;;3.93;;
6023;SDS011;3040;42.654;23.296;2023-04-21T12:49:56;4.30;;;3.60;;
6023;SDS011;3040;42.654;23.296;2023-04-21T12:52:23;3.87;;;3.57;;
6023;SDS011;3040;42.654;23.296;2023-04-21T12:54:51;5.57;;;3.70;;
6023;SDS011;3040;42.654;23.296;2023-04-21T12:57:19;3.67;;;3.40;;
6023;SDS011;3040;42.654;23.296;2023-04-21T12:59:46;3.83;;;3.60;;
6023;SDS011;3040;42.654;23.296;2023-04-21T13:02:13;6.80;;;4.10;;
6023;SDS011;3040;42.654;23.296;2023-04-21T13:04:40;4.90;;;3.97;;
6023;SDS011;3040;42.654;23.296;2023-04-21T13:07:07;5.50;;;4.10;;
6023;SDS011;3040;42.654;23.296;2023-04-21T13:09:34;4.00;;;3.67;;
6023;SDS011;3040;42.654;23.296;2023-04-21T13:12:03;3.87;;;3.60;;
6023;SDS011;3040;42.654;23.296;2023-04-21T13:14:30;4.80;;;4.37;;
6023;SDS011;3040;42.654;23.296;2023-04-21T13:16:57;5.63;;;4.13;;
6023;SDS011;3040;42.654;23.296;2023-04-21T13:19:24;6.70;;;3.80;;
6023;SDS011;3040;42.654;23.296;2023-04-21T13:21:52;3.90;;;3.60;;
6023;SDS011;3040;42.654;23.296;2023-04-21T13:24:19;4.07;;;3.60;;
6023;SDS011;3040;42.654;23.296;2023-04-21T13:26:46;4.57;;;3.90;;
6023;SDS011;3040;42.654;23.296;2023-04-21T13:29:14;4.60;;;3.50;;
6023;SDS011;3040;42.654;23.296;2023-04-21T13:31:41;3.93;;;3.67;;
6023;SDS011;3040;42.654;23.296;2023-04-21T13:34:08;5.10;;;4.10;;
6023;SDS011;3040;42.654;23.296;2023-04-21T13:36:35;3.80;;;3.47;;
6023;SDS011;3040;42.654;23.296;2023-04-21T13:39:02;7.10;;;3.57;;
6023;SDS011;3040;42.654;23.296;2023-04-21T13:41:29;4.40;;;3.77;;
6023;SDS011;3040;42.654;23.296;2023-04-21T13:43:56;4.37;;;3.90;;
6023;SDS011;3040;42.654;23.296;2023-04-21T13:46:24;3.70;;;3.50;;
6023;SDS011;3040;42.654;23.296;2023-04-21T13:48:52;4.50;;;3.90;;
6023;SDS011;3040;42.654;23.296;2023-04-21T13:51:19;5.20;;;3.53;;
6023;SDS011;3040;42.654;23.296;2023-04-21T13:53:46;4.93;;;3.50;;
6023;SDS011;3040;42.654;23.296;2023-04-21T13:56:13;4.07;;;3.87;;
6023;SDS011;3040;42.654;23.296;2023-04-21T13:58:40;3.80;;;3.60;;
6023;SDS011;3040;42.654;23.296;2023-04-21T14:01:07;3.83;;;3.53;;
6023;SDS011;3040;42.654;23.296;2023-04-21T14:03:35;4.40;;;4.10;;
6023;SDS011;3040;42.654;23.296;2023-04-21T14:06:02;4.73;;;4.10;;
6023;SDS011;3040;42.654;23.296;2023-04-21T14:08:30;9.17;;;3.77;;
6023;SDS011;3040;42.654;23.296;2023-04-21T14:10:57;7.70;;;4.53;;
6023;SDS011;3040;42.654;23.296;2023-04-21T14:13:24;4.83;;;4.43;;
6023;SDS011;3040;42.654;23.296;2023-04-21T14:15:53;4.70;;;4.37;;
6023;SDS011;3040;42.654;23.296;2023-04-21T14:18:20;9.77;;;5.20;;
6023;SDS011;3040;42.654;23.296;2023-04-21T14:20:49;8.07;;;5.27;;
6023;SDS011;3040;42.654;23.296;2023-04-21T14:23:16;4.67;;;4.03;;
6023;SDS011;3040;42.654;23.296;2023-04-21T14:25:43;5.27;;;4.37;;
6023;SDS011;3040;42.654;23.296;2023-04-21T14:28:10;4.23;;;3.83;;
6023;SDS011;3040;42.654;23.296;2023-04-21T14:30:37;5.33;;;4.83;;
6023;SDS011;3040;42.654;23.296;2023-04-21T14:33:06;4.40;;;4.10;;
6023;SDS011;3040;42.654;23.296;2023-04-21T14:35:35;5.10;;;4.33;;
6023;SDS011;3040;42.654;23.296;2023-04-21T14:38:03;31.60;;;8.00;;
6023;SDS011;3040;42.654;23.296;2023-04-21T14:40:30;4.97;;;4.57;;
6023;SDS011;3040;42.654;23.296;2023-04-21T14:42:57;5.20;;;4.00;;
6023;SDS011;3040;42.654;23.296;2023-04-21T14:45:24;7.87;;;4.83;;
6023;SDS011;3040;42.654;23.296;2023-04-21T14:47:52;9.50;;;4.67;;
6023;SDS011;3040;42.654;23.296;2023-04-21T14:50:19;4.53;;;4.17;;
6023;SDS011;3040;42.654;23.296;2023-04-21T14:52:46;4.40;;;4.10;;
6023;SDS011;3040;42.654;23.296;2023-04-21T14:55:15;4.97;;;4.40;;
6023;SDS011;3040;42.654;23.296;2023-04-21T14:57:42;4.27;;;3.97;;
6023;SDS011;3040;42.654;23.296;2023-04-21T15:00:09;6.90;;;4.70;;
6023;SDS011;3040;42.654;23.296;2023-04-21T15:02:37;7.43;;;4.63;;
6023;SDS011;3040;42.654;23.296;2023-04-21T15:05:05;5.23;;;4.80;;
6023;SDS011;3040;42.654;23.296;2023-04-21T15:07:33;9.87;;;4.57;;
6023;SDS011;3040;42.654;23.296;2023-04-21T15:09:59;7.83;;;5.17;;